createdAt,value
2018-05-26T00:01:15.700Z,9.27
2018-05-26T00:03:43.200Z,8.53
2018-05-26T00:06:10.715Z,7.77
2018-05-26T00:08:38.286Z,9.93
2018-05-26T00:11:05.768Z,9.20
2018-05-26T00:13:33.269Z,10.87
2018-05-26T00:16:00.754Z,9.57
2018-05-26T00:18:28.286Z,10.13
2018-05-26T00:20:55.860Z,8.17
2018-05-26T00:23:23.374Z,7.10
2018-05-26T00:25:50.867Z,6.13
2018-05-26T00:28:18.389Z,6.20
2018-05-26T00:30:45.880Z,6.20
2018-05-26T00:33:13.394Z,5.73
2018-05-26T00:35:41.657Z,6.10
2018-05-26T00:38:09.942Z,6.20
2018-05-26T00:40:38.173Z,6.40
2018-05-26T00:43:05.656Z,6.23
2018-05-26T00:45:33.183Z,6.70
2018-05-26T00:48:00.641Z,6.60
2018-05-26T00:50:28.135Z,6.60
2018-05-26T00:52:56.399Z,6.67
2018-05-26T00:55:23.898Z,6.83
2018-05-26T00:57:52.130Z,5.97
2018-05-26T01:00:19.618Z,6.10
2018-05-26T01:02:47.862Z,6.50
2018-05-26T01:05:15.365Z,6.43
2018-05-26T01:07:42.853Z,7.00
2018-05-26T01:10:10.330Z,7.27
2018-05-26T01:12:37.838Z,6.97
2018-05-26T01:15:05.356Z,6.47
2018-05-26T01:17:32.837Z,5.77
2018-05-26T01:20:01.146Z,6.37
2018-05-26T01:22:28.583Z,6.43
2018-05-26T01:24:56.866Z,5.80
2018-05-26T01:27:24.362Z,5.60
2018-05-26T01:29:51.842Z,6.67
2018-05-26T01:32:19.357Z,6.23
2018-05-26T01:34:46.843Z,7.70
2018-05-26T01:37:14.356Z,7.00
2018-05-26T01:39:42.618Z,7.30
2018-05-26T01:42:10.099Z,5.60
2018-05-26T01:44:38.361Z,6.80
2018-05-26T01:47:06.614Z,7.50
2018-05-26T01:49:35.640Z,7.30
2018-05-26T01:52:03.877Z,5.70
2018-05-26T01:54:31.426Z,7.13
2018-05-26T01:56:59.335Z,6.90
2018-05-26T01:59:27.588Z,6.50
2018-05-26T02:01:55.101Z,6.47
2018-05-26T02:04:22.597Z,7.00
2018-05-26T02:06:50.089Z,6.70
2018-05-26T02:09:18.349Z,6.50
2018-05-26T02:11:45.837Z,5.90
2018-05-26T02:14:14.083Z,7.07
2018-05-26T02:16:41.601Z,7.03
2018-05-26T02:19:09.105Z,7.03
2018-05-26T02:21:37.331Z,5.90
2018-05-26T02:24:04.846Z,6.37
2018-05-26T02:26:32.314Z,6.67
2018-05-26T02:29:00.562Z,7.00
2018-05-26T02:31:28.054Z,6.40
2018-05-26T02:33:56.314Z,6.23
2018-05-26T02:36:23.790Z,7.53
2018-05-26T02:38:52.052Z,6.70
2018-05-26T02:41:20.298Z,5.97
2018-05-26T02:43:47.825Z,6.73
2018-05-26T02:46:15.316Z,6.50
2018-05-26T02:48:42.803Z,6.40
2018-05-26T02:51:10.284Z,6.40
2018-05-26T02:53:38.568Z,7.40
2018-05-26T02:56:06.810Z,7.93
2018-05-26T02:58:34.333Z,6.90
2018-05-26T03:01:01.807Z,6.90
2018-05-26T03:03:29.282Z,6.20
2018-05-26T03:06:02.580Z,7.50
2018-05-26T03:08:35.876Z,6.63
2018-05-26T03:11:09.183Z,7.33
2018-05-26T03:13:43.269Z,6.40
2018-05-26T03:16:16.608Z,6.30
2018-05-26T03:18:44.191Z,7.23
2018-05-26T03:21:11.696Z,7.17
2018-05-26T03:23:39.162Z,6.53
2018-05-26T03:26:06.662Z,6.53
2018-05-26T03:28:34.133Z,7.77
2018-05-26T03:31:01.625Z,6.80
2018-05-26T03:33:29.101Z,7.20
2018-05-26T03:35:56.605Z,7.70
2018-05-26T03:38:24.073Z,7.10
2018-05-26T03:40:51.566Z,6.63
2018-05-26T03:43:19.057Z,7.70
2018-05-26T03:45:46.537Z,7.00
2018-05-26T03:48:14.030Z,7.00
2018-05-26T03:50:41.490Z,6.50
2018-05-26T03:53:08.978Z,6.87
2018-05-26T03:55:49.385Z,6.97
2018-05-26T03:58:28.845Z,6.67
2018-05-26T04:00:56.317Z,7.07
2018-05-26T04:03:23.819Z,7.27
2018-05-26T04:05:51.341Z,6.60
2018-05-26T04:08:18.873Z,7.10
2018-05-26T04:10:46.369Z,7.93
2018-05-26T04:13:14.637Z,7.47
2018-05-26T04:15:43.001Z,7.53
2018-05-26T04:18:10.477Z,6.57
2018-05-26T04:20:38.729Z,7.23
2018-05-26T04:23:06.188Z,7.63
2018-05-26T04:25:33.689Z,8.10
2018-05-26T04:28:01.153Z,7.70
2018-05-26T04:30:28.658Z,8.40
2018-05-26T04:32:56.125Z,8.13
2018-05-26T04:35:23.691Z,8.10
2018-05-26T04:37:51.151Z,7.93
2018-05-26T04:40:18.630Z,8.80
2018-05-26T04:42:46.908Z,9.10
2018-05-26T04:45:15.153Z,8.87
2018-05-26T04:47:42.679Z,9.10
2018-05-26T04:50:10.136Z,7.73
2018-05-26T04:52:37.645Z,8.70
2018-05-26T04:55:05.097Z,7.60
2018-05-26T04:57:32.618Z,8.30
2018-05-26T05:00:00.081Z,8.33
2018-05-26T05:02:27.576Z,8.90
2018-05-26T05:04:55.065Z,8.30
2018-05-26T05:07:23.347Z,9.20
2018-05-26T05:09:51.601Z,8.97
2018-05-26T05:12:19.105Z,9.10
2018-05-26T05:14:46.589Z,8.90
2018-05-26T05:17:14.085Z,9.60
2018-05-26T05:19:42.377Z,9.30
2018-05-26T05:22:09.852Z,9.77
2018-05-26T05:24:37.370Z,11.07
2018-05-26T05:27:04.874Z,11.17
2018-05-26T05:29:32.377Z,10.10
2018-05-26T05:31:59.845Z,9.73
2018-05-26T05:34:28.123Z,11.57
2018-05-26T05:36:55.597Z,10.10
2018-05-26T05:39:23.891Z,10.13
2018-05-26T05:41:51.360Z,9.60
2018-05-26T05:44:18.877Z,11.40
2018-05-26T05:46:47.121Z,10.80
2018-05-26T05:49:14.606Z,10.30
2018-05-26T05:51:42.113Z,10.00
2018-05-26T05:54:09.628Z,10.80
2018-05-26T05:56:37.145Z,10.27
2018-05-26T05:59:04.912Z,11.73
2018-05-26T06:01:32.904Z,11.50
2018-05-26T06:04:00.425Z,11.50
2018-05-26T06:06:27.913Z,11.97
2018-05-26T06:08:55.393Z,10.07
2018-05-26T06:11:23.654Z,11.07
2018-05-26T06:13:51.145Z,11.40
2018-05-26T06:16:19.420Z,11.30
2018-05-26T06:18:47.665Z,10.57
2018-05-26T06:21:15.161Z,10.33
2018-05-26T06:23:43.399Z,10.70
2018-05-26T06:26:10.955Z,11.37
2018-05-26T06:28:38.506Z,11.33
2018-05-26T06:31:05.964Z,11.83
2018-05-26T06:33:33.467Z,10.93
2018-05-26T06:36:01.709Z,11.07
2018-05-26T06:38:29.224Z,10.70
2018-05-26T06:40:57.468Z,9.53
2018-05-26T06:43:24.977Z,10.37
2018-05-26T06:45:52.465Z,9.30
2018-05-26T06:48:19.969Z,9.30
2018-05-26T06:50:48.259Z,9.67
2018-05-26T06:53:15.724Z,9.03
2018-05-26T06:55:43.223Z,8.30
2018-05-26T06:58:10.776Z,9.40
2018-05-26T07:00:38.249Z,8.53
2018-05-26T07:03:05.744Z,7.13
2018-05-26T07:05:34.106Z,7.60
2018-05-26T07:08:01.584Z,7.67
2018-05-26T07:10:29.105Z,7.97
2018-05-26T07:12:56.594Z,6.93
2018-05-26T07:15:24.853Z,7.70
2018-05-26T07:17:52.326Z,6.60
2018-05-26T07:20:20.574Z,6.83
2018-05-26T07:22:48.037Z,7.30
2018-05-26T07:25:15.522Z,5.60
2018-05-26T07:27:43.768Z,6.57
2018-05-26T07:30:11.250Z,5.93
2018-05-26T07:32:39.493Z,5.63
2018-05-26T07:35:07.020Z,5.80
2018-05-26T07:37:34.481Z,5.97
2018-05-26T07:40:01.978Z,5.57
2018-05-26T07:42:29.493Z,5.20
2018-05-26T07:44:56.976Z,5.53
2018-05-26T07:47:24.473Z,5.30
2018-05-26T07:49:52.701Z,5.87
2018-05-26T07:52:20.210Z,5.73
2018-05-26T07:54:48.450Z,5.00
2018-05-26T07:57:15.940Z,4.90
2018-05-26T07:59:44.197Z,4.80
2018-05-26T08:02:11.690Z,5.47
2018-05-26T08:04:39.966Z,4.53
2018-05-26T08:07:08.213Z,4.50
2018-05-26T08:09:35.717Z,5.07
2018-05-26T08:12:03.202Z,5.10
2018-05-26T08:14:30.699Z,4.80
2018-05-26T08:16:58.210Z,4.63
2018-05-26T08:19:25.673Z,5.70
2018-05-26T08:21:53.207Z,5.77
2018-05-26T08:24:21.464Z,5.67
2018-05-26T08:26:49.710Z,5.70
2018-05-26T08:29:17.245Z,6.60
2018-05-26T08:31:44.698Z,5.83
2018-05-26T08:34:12.182Z,5.70
2018-05-26T08:36:39.670Z,5.80
2018-05-26T08:39:07.175Z,5.70
2018-05-26T08:41:34.677Z,5.23
2018-05-26T08:44:02.196Z,4.83
2018-05-26T08:46:29.665Z,5.90
2018-05-26T08:48:57.158Z,4.40
2018-05-26T08:51:24.615Z,5.67
2018-05-26T08:53:52.122Z,5.10
2018-05-26T08:56:19.594Z,6.93
2018-05-26T08:58:47.081Z,5.10
2018-05-26T09:01:14.581Z,5.10
2018-05-26T09:03:42.108Z,6.20
2018-05-26T09:06:09.587Z,5.97
2018-05-26T09:08:37.825Z,6.40
2018-05-26T09:11:05.337Z,5.93
2018-05-26T09:13:32.813Z,4.30
2018-05-26T09:16:00.338Z,4.17
2018-05-26T09:18:28.607Z,4.60
2018-05-26T09:20:56.067Z,3.67
2018-05-26T09:23:24.301Z,4.03
2018-05-26T09:25:51.810Z,4.00
2018-05-26T09:28:20.037Z,3.97
2018-05-26T09:30:47.550Z,3.60
2018-05-26T09:33:15.782Z,3.77
2018-05-26T09:35:43.240Z,3.20
2018-05-26T09:38:10.745Z,3.50
2018-05-26T09:40:38.981Z,3.70
2018-05-26T09:43:06.478Z,4.00
2018-05-26T09:45:34.709Z,3.37
2018-05-26T09:48:02.200Z,3.40
2018-05-26T09:50:30.437Z,3.17
2018-05-26T09:52:57.931Z,3.17
2018-05-26T09:55:26.177Z,3.90
2018-05-26T09:57:53.677Z,3.50
2018-05-26T10:00:21.926Z,3.63
2018-05-26T10:02:49.426Z,3.40
2018-05-26T10:05:16.900Z,3.90
2018-05-26T10:07:44.426Z,3.20
2018-05-26T10:10:12.664Z,4.50
2018-05-26T10:12:40.166Z,3.40
2018-05-26T10:15:08.405Z,3.17
2018-05-26T10:17:35.912Z,2.78
2018-05-26T10:20:03.388Z,3.03
2018-05-26T10:22:30.893Z,3.30
2018-05-26T10:24:58.369Z,3.20
2018-05-26T10:27:26.630Z,3.57
2018-05-26T10:29:54.151Z,3.17
2018-05-26T10:32:21.661Z,3.07
2018-05-26T10:34:49.117Z,2.70
2018-05-26T10:37:17.352Z,2.50
2018-05-26T10:39:44.855Z,2.80
2018-05-26T10:42:13.072Z,3.00
2018-05-26T10:44:40.603Z,2.83
2018-05-26T10:47:08.852Z,2.80
2018-05-26T10:49:36.338Z,2.63
2018-05-26T10:52:04.584Z,2.50
2018-05-26T10:54:32.053Z,3.80
2018-05-26T10:56:59.578Z,3.67
2018-05-26T10:59:27.053Z,3.13
2018-05-26T11:01:54.555Z,3.10
2018-05-26T11:04:22.835Z,3.30
2018-05-26T11:06:51.097Z,3.03
2018-05-26T11:09:19.335Z,3.20
2018-05-26T11:11:46.822Z,3.20
2018-05-26T11:14:15.066Z,3.20
2018-05-26T11:16:43.391Z,3.80
2018-05-26T11:19:11.619Z,3.43
2018-05-26T11:21:39.106Z,2.70
2018-05-26T11:24:07.620Z,2.73
2018-05-26T11:26:34.858Z,2.73
2018-05-26T11:29:03.133Z,2.40
2018-05-26T11:31:31.422Z,2.33
2018-05-26T11:33:59.684Z,2.90
2018-05-26T11:36:28.021Z,3.20
2018-05-26T11:42:26.387Z,3.23
2018-05-26T11:44:53.889Z,2.47
2018-05-26T11:47:21.398Z,2.93
2018-05-26T11:49:49.678Z,3.23
2018-05-26T11:52:17.910Z,2.97
2018-05-26T11:54:45.437Z,3.43
2018-05-26T11:57:12.923Z,2.63
2018-05-26T11:59:40.416Z,3.20
2018-05-26T12:02:08.696Z,3.20
2018-05-26T12:04:36.957Z,4.03
2018-05-26T12:07:04.429Z,3.00
2018-05-26T12:09:32.717Z,3.37
2018-05-26T12:12:00.970Z,3.80
2018-05-26T12:14:28.478Z,3.60
2018-05-26T12:16:55.941Z,3.73
2018-05-26T12:19:23.477Z,3.80
2018-05-26T12:21:50.933Z,4.00
2018-05-26T12:24:18.435Z,4.10
2018-05-26T12:26:45.948Z,4.47
2018-05-26T12:29:13.465Z,3.90
2018-05-26T12:31:40.970Z,21.60
2018-05-26T12:34:08.462Z,8.10
2018-05-26T12:36:35.961Z,4.70
2018-05-26T12:39:04.235Z,5.40
2018-05-26T12:41:32.484Z,4.63
2018-05-26T12:43:59.990Z,4.87
2018-05-26T12:46:28.294Z,3.97
2018-05-26T12:48:55.765Z,5.80
2018-05-26T12:51:23.261Z,4.53
2018-05-26T12:53:50.732Z,4.93
2018-05-26T12:56:19.001Z,4.47
2018-05-26T12:58:47.277Z,4.23
2018-05-26T13:01:15.524Z,4.30
2018-05-26T13:03:43.009Z,4.37
2018-05-26T13:06:10.547Z,4.60
2018-05-26T13:08:38.033Z,5.03
2018-05-26T13:11:06.297Z,4.67
2018-05-26T13:13:33.797Z,10.30
2018-05-26T13:16:01.291Z,3.90
2018-05-26T13:18:28.818Z,6.20
2018-05-26T13:20:56.305Z,5.90
2018-05-26T13:23:23.789Z,5.30
2018-05-26T13:25:51.273Z,5.13
2018-05-26T13:28:19.537Z,5.40
2018-05-26T13:30:47.792Z,5.50
2018-05-26T13:33:15.301Z,5.27
2018-05-26T13:35:42.808Z,4.60
2018-05-26T13:38:10.287Z,5.80
2018-05-26T13:40:37.774Z,6.10
2018-05-26T13:43:05.277Z,5.60
2018-05-26T13:45:32.742Z,5.93
2018-05-26T13:48:00.278Z,5.30
2018-05-26T13:50:27.775Z,5.63
2018-05-26T13:52:55.335Z,5.00
2018-05-26T13:55:22.742Z,5.00
2018-05-26T13:57:50.242Z,4.60
2018-05-26T14:00:18.500Z,4.60
2018-05-26T14:02:45.961Z,4.80
2018-05-26T14:05:13.449Z,5.50
2018-05-26T14:07:40.956Z,5.00
2018-05-26T14:10:08.445Z,5.20
2018-05-26T14:12:35.949Z,4.60
2018-05-26T14:15:04.212Z,4.83
2018-05-26T14:17:32.445Z,3.93
2018-05-26T14:20:00.576Z,4.30
2018-05-26T14:22:28.078Z,4.23
2018-05-26T14:24:55.566Z,4.60
2018-05-26T14:27:23.067Z,3.80
2018-05-26T14:29:50.557Z,4.20
2018-05-26T14:32:18.024Z,3.90
2018-05-26T14:34:45.512Z,4.20
2018-05-26T14:37:13.765Z,4.33
2018-05-26T14:39:41.273Z,3.93
2018-05-26T14:42:08.801Z,4.37
2018-05-26T14:44:36.287Z,3.97
2018-05-26T14:47:03.746Z,4.10
2018-05-26T14:49:31.215Z,3.50
2018-05-26T14:51:58.730Z,4.40
2018-05-26T14:54:26.972Z,4.40
2018-05-26T14:56:54.451Z,4.73
2018-05-26T14:59:22.700Z,4.90
2018-05-26T15:01:50.226Z,3.87
2018-05-26T15:04:18.695Z,4.50
2018-05-26T15:06:46.958Z,4.40
2018-05-26T15:09:15.221Z,4.30
2018-05-26T15:11:42.731Z,4.27
2018-05-26T15:14:10.231Z,5.40
2018-05-26T15:16:37.727Z,4.67
2018-05-26T15:19:05.965Z,4.13
2018-05-26T15:21:33.529Z,4.30
2018-05-26T15:24:01.025Z,3.50
2018-05-26T15:26:29.345Z,7.20
2018-05-26T15:28:56.846Z,5.43
2018-05-26T15:31:25.076Z,3.83
2018-05-26T15:33:52.588Z,4.30
2018-05-26T15:36:20.857Z,4.00
2018-05-26T15:38:48.357Z,7.40
2018-05-26T15:41:15.826Z,5.13
2018-05-26T15:43:43.316Z,4.20
2018-05-26T15:46:10.795Z,4.30
2018-05-26T15:48:39.056Z,4.23
2018-05-26T15:51:06.519Z,3.40
2018-05-26T15:53:34.799Z,3.70
2018-05-26T15:56:03.793Z,3.33
2018-05-26T15:58:32.789Z,3.57
2018-05-26T16:01:01.046Z,3.57
2018-05-26T16:03:28.538Z,3.97
2018-05-26T16:05:56.850Z,3.90
2018-05-26T16:08:24.365Z,4.10
2018-05-26T16:10:51.846Z,4.20
2018-05-26T16:13:19.348Z,3.40
2018-05-26T16:15:46.854Z,3.53
2018-05-26T16:18:15.124Z,3.80
2018-05-26T16:20:43.369Z,3.97
2018-05-26T16:23:10.866Z,3.50
2018-05-26T16:25:39.089Z,4.03
2018-05-26T16:28:06.610Z,4.07
2018-05-26T16:30:34.855Z,4.73
2018-05-26T16:33:02.369Z,4.40
2018-05-26T16:35:29.925Z,4.10
2018-05-26T16:37:57.432Z,4.20
2018-05-26T16:40:26.433Z,3.93
2018-05-26T16:42:53.929Z,4.37
2018-05-26T16:45:21.448Z,3.70
2018-05-26T16:47:48.918Z,4.33
2018-05-26T16:50:17.181Z,4.73
2018-05-26T16:52:44.653Z,4.20
2018-05-26T16:55:12.924Z,4.13
2018-05-26T16:57:41.173Z,4.97
2018-05-26T17:00:08.661Z,4.17
2018-05-26T17:02:36.913Z,4.20
2018-05-26T17:05:04.416Z,4.53
2018-05-26T17:07:32.666Z,4.17
2018-05-26T17:10:00.181Z,4.10
2018-05-26T17:12:27.646Z,4.30
2018-05-26T17:14:55.141Z,4.13
2018-05-26T17:17:22.613Z,4.30
2018-05-26T17:19:50.864Z,4.20
2018-05-26T17:22:18.346Z,4.17
2018-05-26T17:24:46.608Z,4.00
2018-05-26T17:27:14.106Z,3.60
2018-05-26T17:29:42.369Z,4.47
2018-05-26T17:32:10.641Z,4.70
2018-05-26T17:34:38.916Z,5.03
2018-05-26T17:37:07.196Z,4.20
2018-05-26T17:39:35.463Z,4.63
2018-05-26T17:42:02.935Z,3.77
2018-05-26T17:44:31.192Z,4.23
2018-05-26T17:46:58.682Z,4.43
2018-05-26T17:49:26.165Z,4.77
2018-05-26T17:51:53.657Z,4.40
2018-05-26T17:54:21.174Z,4.50
2018-05-26T17:56:48.692Z,4.43
2018-05-26T17:59:16.937Z,4.33
2018-05-26T18:01:44.428Z,4.60
2018-05-26T18:04:12.690Z,4.77
2018-05-26T18:06:40.974Z,5.60
2018-05-26T18:09:08.461Z,4.67
2018-05-26T18:11:35.969Z,5.27
2018-05-26T18:14:03.462Z,6.33
2018-05-26T18:16:31.716Z,6.10
2018-05-26T18:18:59.186Z,6.97
2018-05-26T18:21:26.779Z,5.63
2018-05-26T18:23:54.264Z,6.33
2018-05-26T18:26:21.746Z,6.50
2018-05-26T18:28:49.274Z,5.60
2018-05-26T18:31:16.766Z,6.10
2018-05-26T18:33:44.249Z,5.00
2018-05-26T18:36:12.508Z,5.70
2018-05-26T18:38:39.994Z,5.27
2018-05-26T18:41:08.244Z,6.03
2018-05-26T18:43:35.750Z,4.90
2018-05-26T18:46:03.233Z,5.97
2018-05-26T18:48:30.738Z,5.10
2018-05-26T18:50:59.009Z,5.23
2018-05-26T18:53:26.537Z,5.67
2018-05-26T18:55:53.997Z,5.17
2018-05-26T18:58:21.518Z,5.90
2018-05-26T19:00:49.005Z,5.73
2018-05-26T19:03:16.493Z,5.60
2018-05-26T19:05:44.002Z,5.10
2018-05-26T19:08:11.502Z,5.37
2018-05-26T19:10:39.006Z,5.27
2018-05-26T19:13:07.233Z,5.90
2018-05-26T19:15:34.728Z,5.40
2018-05-26T19:18:02.974Z,6.37
2018-05-26T19:20:30.473Z,5.97
2018-05-26T19:22:58.709Z,5.17
2018-05-26T19:25:26.222Z,6.13
2018-05-26T19:27:53.691Z,6.30
2018-05-26T19:30:21.231Z,6.03
2018-05-26T19:32:48.701Z,6.73
2018-05-26T19:35:16.227Z,6.00
2018-05-26T19:37:44.481Z,5.00
2018-05-26T19:40:11.951Z,6.70
2018-05-26T19:42:39.475Z,5.83
2018-05-26T19:45:06.957Z,5.13
2018-05-26T19:47:34.437Z,4.30
2018-05-26T19:50:02.725Z,5.10
2018-05-26T19:52:30.199Z,5.00
2018-05-26T19:54:57.667Z,5.53
2018-05-26T19:57:25.164Z,5.87
2018-05-26T19:59:52.672Z,6.03
2018-05-26T20:02:20.194Z,5.80
2018-05-26T20:04:47.670Z,5.00
2018-05-26T20:07:15.942Z,5.60
2018-05-26T20:09:44.184Z,5.53
2018-05-26T20:12:11.675Z,6.30
2018-05-26T20:14:39.206Z,5.67
2018-05-26T20:17:06.694Z,5.40
2018-05-26T20:19:34.977Z,5.63
2018-05-26T20:22:03.229Z,4.40
2018-05-26T20:24:30.738Z,4.67
2018-05-26T20:26:58.224Z,5.43
2018-05-26T20:29:25.740Z,5.37
2018-05-26T20:31:53.989Z,4.80
2018-05-26T20:34:21.496Z,4.70
2018-05-26T20:36:49.006Z,5.40
2018-05-26T20:39:16.497Z,5.37
2018-05-26T20:41:44.014Z,5.30
2018-05-26T20:44:11.518Z,5.27
2018-05-26T20:46:39.021Z,5.17
2018-05-26T20:49:06.500Z,5.10
2018-05-26T20:51:34.041Z,4.57
2018-05-26T20:54:01.530Z,4.53
2018-05-26T20:56:29.797Z,4.73
2018-05-26T20:58:57.306Z,4.80
2018-05-26T21:01:24.822Z,4.83
2018-05-26T21:03:52.295Z,4.73
2018-05-26T21:06:20.580Z,5.40
2018-05-26T21:08:48.837Z,4.50
2018-05-26T21:11:16.345Z,5.00
2018-05-26T21:13:43.839Z,5.00
2018-05-26T21:16:11.331Z,4.70
2018-05-26T21:18:39.581Z,5.00
2018-05-26T21:21:07.901Z,5.27
2018-05-26T21:23:36.860Z,4.97
2018-05-26T21:26:05.142Z,5.40
2018-05-26T21:28:33.412Z,4.83
2018-05-26T21:31:00.924Z,4.00
2018-05-26T21:33:28.442Z,5.10
2018-05-26T21:35:56.698Z,4.87
2018-05-26T21:38:25.711Z,5.50
2018-05-26T21:40:54.024Z,4.77
2018-05-26T21:43:21.536Z,5.20
2018-05-26T21:45:48.998Z,5.13
2018-05-26T21:48:16.488Z,5.20
2018-05-26T21:50:43.952Z,6.60
2018-05-26T21:53:11.455Z,6.67
2018-05-26T21:55:38.931Z,6.10
2018-05-26T21:58:06.429Z,6.13
2018-05-26T22:00:33.946Z,5.43
2018-05-26T22:03:01.439Z,5.50
2018-05-26T22:05:28.930Z,5.73
2018-05-26T22:07:56.397Z,5.20
2018-05-26T22:10:23.921Z,5.80
2018-05-26T22:12:51.376Z,5.37
2018-05-26T22:15:18.895Z,5.83
2018-05-26T22:17:46.375Z,5.67
2018-05-26T22:20:14.639Z,5.17
2018-05-26T22:22:42.118Z,5.60
2018-05-26T22:25:09.649Z,5.53
2018-05-26T22:27:37.109Z,5.37
2018-05-26T22:30:04.614Z,6.27
2018-05-26T22:32:32.096Z,4.67
2018-05-26T22:34:59.594Z,5.23
2018-05-26T22:37:27.865Z,5.50
2018-05-26T22:39:55.365Z,5.40
2018-05-26T22:42:22.860Z,5.00
2018-05-26T22:44:50.386Z,6.20
2018-05-26T22:47:19.017Z,4.93
2018-05-26T22:49:46.492Z,5.47
2018-05-26T22:52:14.762Z,5.70
2018-05-26T22:54:43.006Z,4.90
2018-05-26T22:57:10.508Z,5.47
2018-05-26T22:59:38.756Z,5.47
2018-05-26T23:02:07.771Z,6.70
2018-05-26T23:04:36.006Z,5.53
2018-05-26T23:07:03.550Z,5.93
2018-05-26T23:09:31.761Z,5.33
2018-05-26T23:12:00.026Z,5.50
2018-05-26T23:14:27.505Z,5.07
2018-05-26T23:16:55.756Z,5.50
2018-05-26T23:19:23.243Z,5.40
2018-05-26T23:21:52.446Z,5.47
2018-05-26T23:24:20.682Z,5.77
2018-05-26T23:26:48.177Z,5.43
2018-05-26T23:29:17.188Z,5.30
2018-05-26T23:31:45.450Z,6.03
2018-05-26T23:34:13.733Z,6.27
2018-05-26T23:36:41.981Z,5.80
2018-05-26T23:39:09.497Z,6.03
2018-05-26T23:41:37.003Z,5.60
2018-05-26T23:44:04.506Z,5.17
2018-05-26T23:46:32.025Z,5.97
2018-05-26T23:48:59.528Z,5.97
2018-05-26T23:51:27.004Z,6.40
2018-05-26T23:53:54.501Z,5.17
2018-05-26T23:56:21.990Z,5.57
2018-05-26T23:58:50.254Z,4.90
